Time;durP1;ratioP1;P1;durP2;ratioP2;P2;SDS_P1;SDS_P2;PMS_P1;PMS_P2;Temp;Humidity;BMP_temperature;BMP_pressure;BME280_temperature;BME280_humidity;BME280_pressure;Samples;Min_cycle;Max_cycle;Signal;HPM_P1;HPM_P2
2021/03/13 00:01:32;;;;;;;11.52;1.52;;;21.20;46.60;;;;;;5076705;28;20025;-48
2021/03/13 00:03:58;;;;;;;13.30;2.33;;;21.20;46.80;;;;;;5077465;28;20032;-46
2021/03/13 00:06:23;;;;;;;14.52;1.15;;;21.20;46.90;;;;;;5088760;28;20024;-48
2021/03/13 00:08:49;;;;;;;12.38;1.23;;;21.20;47.00;;;;;;5074464;28;20037;-47
2021/03/13 00:11:15;;;;;;;8.85;1.30;;;21.10;47.00;;;;;;5075286;28;20028;-47
2021/03/13 00:13:41;;;;;;;13.63;1.67;;;21.20;47.10;;;;;;5082889;28;20021;-44
2021/03/13 00:16:07;;;;;;;10.15;1.25;;;21.10;47.10;;;;;;5074430;28;20571;-43
2021/03/13 00:18:34;;;;;;;6.28;1.30;;;21.20;48.30;;;;;;5079502;28;20023;-42
2021/03/13 00:21:01;;;;;;;13.45;1.50;;;21.20;48.60;;;;;;5088480;28;20035;-45
2021/03/13 00:23:26;;;;;;;11.18;1.30;;;21.20;49.30;;;;;;5094552;28;20492;-48
2021/03/13 00:25:52;;;;;;;7.28;1.40;;;21.20;49.30;;;;;;5079905;28;20024;-45
2021/03/13 00:28:18;;;;;;;6.40;1.33;;;21.30;50.10;;;;;;5074930;28;20040;-45
2021/03/13 00:30:46;;;;;;;8.15;1.42;;;21.20;50.10;;;;;;5077600;28;20031;-47
2021/03/13 00:33:17;;;;;;;5.88;0.93;;;21.20;50.50;;;;;;5094126;28;20032;-45
2021/03/13 00:35:45;;;;;;;5.18;1.33;;;21.20;50.50;;;;;;5094365;28;20056;-48
2021/03/13 00:38:11;;;;;;;5.03;1.08;;;21.20;51.90;;;;;;5080186;28;20028;-46
2021/03/13 00:40:40;;;;;;;9.73;1.30;;;21.20;50.40;;;;;;5074314;28;20043;-47
2021/03/13 00:43:06;;;;;;;12.70;1.60;;;21.20;50.20;;;;;;5077165;28;20201;-50
2021/03/13 00:45:33;;;;;;;9.25;2.10;;;21.20;50.00;;;;;;5087330;28;20039;-47
2021/03/13 00:48:00;;;;;;;6.45;1.00;;;21.20;50.00;;;;;;5092407;28;20032;-51
2021/03/13 00:50:28;;;;;;;7.30;1.38;;;21.10;50.00;;;;;;5085360;28;20032;-48
2021/03/13 00:52:55;;;;;;;8.85;1.27;;;21.00;49.90;;;;;;5076633;28;20086;-45
2021/03/13 00:55:20;;;;;;;8.30;0.90;;;21.00;50.10;;;;;;5089648;28;20032;-46
2021/03/13 00:57:46;;;;;;;10.00;1.60;;;21.00;49.90;;;;;;5075069;28;20424;-50
2021/03/13 01:00:16;;;;;;;9.15;1.45;;;21.00;49.80;;;;;;5078015;28;20044;-43
2021/03/13 01:02:41;;;;;;;6.60;1.10;;;20.90;49.50;;;;;;5075039;28;20090;-44
2021/03/13 01:05:08;;;;;;;9.00;1.27;;;20.90;49.30;;;;;;5082299;28;20032;-52
2021/03/13 01:07:35;;;;;;;8.00;1.70;;;20.90;49.10;;;;;;5080005;28;20036;-45
2021/03/13 01:10:13;;;;;;;5.45;1.05;;;20.90;49.00;;;;;;5083566;28;20032;-41
2021/03/13 01:12:40;;;;;;;6.68;1.38;;;20.80;48.80;;;;;;5083073;28;20489;-43
2021/03/13 01:15:11;;;;;;;4.97;1.00;;;20.90;50.80;;;;;;5083327;28;20027;-44
2021/03/13 01:17:36;;;;;;;5.15;0.73;;;20.90;59.30;;;;;;5083201;28;20032;-44
2021/03/13 01:20:05;;;;;;;8.60;0.90;;;20.90;58.40;;;;;;5078347;28;20032;-45
2021/03/13 01:22:31;;;;;;;6.47;1.02;;;20.90;58.20;;;;;;5080795;28;20397;-45
2021/03/13 01:24:57;;;;;;;5.80;1.60;;;20.90;58.10;;;;;;5079675;28;20024;-47
2021/03/13 01:27:22;;;;;;;2.05;0.70;;;20.90;58.60;;;;;;5082970;28;20032;-42
2021/03/13 01:29:48;;;;;;;5.93;0.85;;;20.90;59.40;;;;;;5084025;28;20122;-45
2021/03/13 01:32:14;;;;;;;2.80;0.70;;;20.80;59.90;;;;;;5080967;28;20021;-47
2021/03/13 01:34:40;;;;;;;5.32;1.00;;;20.80;60.00;;;;;;5082681;28;20440;-45
2021/03/13 01:37:05;;;;;;;6.57;0.80;;;20.80;60.10;;;;;;5077740;28;20028;-46
2021/03/13 01:39:31;;;;;;;6.32;1.17;;;20.80;60.10;;;;;;5080275;28;20036;-45
2021/03/13 01:41:57;;;;;;;4.10;0.73;;;20.80;60.40;;;;;;5081450;28;20028;-45
2021/03/13 01:44:22;;;;;;;2.67;0.55;;;20.80;60.60;;;;;;5080715;28;20029;-45
2021/03/13 01:46:48;;;;;;;4.60;0.63;;;20.80;60.90;;;;;;5081923;28;20024;-45
2021/03/13 01:49:21;;;;;;;2.33;0.73;;;20.80;61.00;;;;;;5083212;28;20391;-43
2021/03/13 01:51:47;;;;;;;3.45;1.00;;;20.80;61.40;;;;;;5081846;28;20043;-47
2021/03/13 01:54:13;;;;;;;15.68;1.42;;;20.70;61.50;;;;;;5084831;28;20025;-45
2021/03/13 01:56:40;;;;;;;2.55;0.73;;;20.80;61.40;;;;;;5082769;28;20046;-42
2021/03/13 01:59:06;;;;;;;3.10;0.70;;;20.70;61.40;;;;;;5081878;28;20048;-45
2021/03/13 02:01:32;;;;;;;1.92;0.52;;;20.80;61.90;;;;;;5082781;28;20475;-41
2021/03/13 02:04:01;;;;;;;3.20;0.63;;;20.70;61.80;;;;;;5083286;28;20423;-47
2021/03/13 02:06:27;;;;;;;3.25;0.60;;;20.70;61.80;;;;;;5084286;28;20028;-43
2021/03/13 02:09:03;;;;;;;2.95;0.80;;;20.70;62.30;;;;;;5084018;28;20028;-45
2021/03/13 02:11:59;;;;;;;1.27;0.73;;;20.70;62.20;;;;;;5084548;28;20056;-43
2021/03/13 02:14:40;;;;;;;1.73;0.93;;;20.70;62.20;;;;;;5083700;28;20492;-48
2021/03/13 02:17:27;;;;;;;2.42;0.55;;;20.70;62.10;;;;;;5079014;28;20020;-45
2021/03/13 02:19:58;;;;;;;4.05;0.60;;;20.70;62.20;;;;;;5082795;28;20047;-46
2021/03/13 02:22:27;;;;;;;3.95;0.80;;;20.70;62.00;;;;;;5082511;28;20025;-43
2021/03/13 02:25:34;;;;;;;3.80;0.55;;;20.70;61.40;;;;;;5084713;28;20039;-46
2021/03/13 02:28:12;;;;;;;2.35;0.60;;;20.70;61.30;;;;;;5081293;28;20078;-44
2021/03/13 02:30:40;;;;;;;0.98;0.43;;;20.70;60.70;;;;;;5077433;28;20033;-46
2021/03/13 02:33:23;;;;;;;1.98;0.60;;;20.70;60.60;;;;;;5082604;28;20058;-44
2021/03/13 02:36:00;;;;;;;1.42;0.50;;;20.70;60.30;;;;;;5082360;28;20039;-46
2021/03/13 02:38:52;;;;;;;2.08;0.40;;;20.70;60.60;;;;;;5081990;28;20032;-48
2021/03/13 02:41:20;;;;;;;2.13;0.60;;;20.70;60.70;;;;;;5079855;28;20051;-45
2021/03/13 02:43:50;;;;;;;1.73;0.50;;;20.70;60.40;;;;;;5080779;28;20423;-46
2021/03/13 02:46:20;;;;;;;2.42;0.95;;;20.60;59.50;;;;;;5079670;28;20090;-44
2021/03/13 02:48:50;;;;;;;1.95;0.80;;;20.60;58.60;;;;;;5085893;28;20028;-44
2021/03/13 02:51:18;;;;;;;1.55;0.47;;;20.60;58.70;;;;;;5084104;28;20028;-41
2021/03/13 02:53:47;;;;;;;0.65;0.30;;;20.60;58.60;;;;;;5080703;28;20043;-46
2021/03/13 02:56:15;;;;;;;1.60;0.40;;;20.70;58.60;;;;;;5079333;28;20024;-48
2021/03/13 02:58:43;;;;;;;1.30;0.50;;;20.60;58.40;;;;;;5079320;28;20053;-51
2021/03/13 03:01:10;;;;;;;2.00;0.68;;;20.60;58.30;;;;;;5079378;28;20290;-43
2021/03/13 03:03:38;;;;;;;1.08;0.63;;;20.60;58.20;;;;;;5083947;28;20034;-44
2021/03/13 03:06:05;;;;;;;1.40;0.30;;;20.60;58.20;;;;;;5082883;28;20090;-44
2021/03/13 03:08:32;;;;;;;2.78;0.60;;;20.60;57.90;;;;;;5078900;28;20139;-47
2021/03/13 03:10:58;;;;;;;2.22;1.00;;;20.60;58.50;;;;;;5077628;28;20036;-48
2021/03/13 03:13:27;;;;;;;1.65;0.45;;;20.60;57.80;;;;;;5082767;28;20488;-45
2021/03/13 03:15:58;;;;;;;1.55;0.40;;;20.60;57.80;;;;;;5080356;28;20028;-42
2021/03/13 03:18:27;;;;;;;1.88;0.40;;;20.60;57.70;;;;;;5080434;28;20024;-43
2021/03/13 03:20:54;;;;;;;1.40;0.50;;;20.60;57.80;;;;;;5080392;28;20036;-45
2021/03/13 03:23:19;;;;;;;0.63;0.40;;;20.60;57.80;;;;;;5080208;28;20033;-46
2021/03/13 03:25:45;;;;;;;0.77;0.40;;;20.60;57.90;;;;;;5083589;28;20036;-41
2021/03/13 03:28:14;;;;;;;1.80;0.63;;;20.60;57.90;;;;;;5080397;28;20034;-43
2021/03/13 03:30:41;;;;;;;0.80;0.35;;;20.60;58.00;;;;;;5079374;28;20028;-41
2021/03/13 03:33:07;;;;;;;0.93;0.47;;;20.60;58.10;;;;;;5080938;28;20024;-42
2021/03/13 03:35:32;;;;;;;1.00;0.50;;;20.60;58.10;;;;;;5080306;28;20119;-42
2021/03/13 03:38:02;;;;;;;1.30;0.43;;;20.60;58.00;;;;;;5083508;28;20035;-47
2021/03/13 03:40:30;;;;;;;1.05;0.45;;;20.60;57.90;;;;;;5080604;28;20064;-41
2021/03/13 03:43:19;;;;;;;1.25;0.40;;;20.60;57.90;;;;;;5082387;28;20094;-44
2021/03/13 03:45:51;;;;;;;1.17;0.40;;;20.60;57.80;;;;;;5081426;28;20039;-47
2021/03/13 03:48:19;;;;;;;1.77;0.73;;;20.60;58.10;;;;;;5079445;28;20040;-41
2021/03/13 03:50:45;;;;;;;2.33;0.40;;;20.60;57.90;;;;;;5077890;28;20495;-44
2021/03/13 03:53:22;;;;;;;2.05;0.40;;;20.60;58.00;;;;;;5079933;28;20070;-46
2021/03/13 03:55:50;;;;;;;2.38;0.57;;;20.60;58.60;;;;;;5082614;28;20540;-44
2021/03/13 03:58:21;;;;;;;1.80;0.63;;;20.60;58.20;;;;;;5079174;28;20476;-41
2021/03/13 04:00:49;;;;;;;1.23;0.50;;;20.60;58.20;;;;;;5078595;28;20040;-48
2021/03/13 04:03:15;;;;;;;1.17;0.60;;;20.60;58.10;;;;;;5079799;28;20064;-44
2021/03/13 04:05:42;;;;;;;2.42;0.50;;;20.60;58.10;;;;;;5077475;28;20067;-43
2021/03/13 04:08:12;;;;;;;2.78;0.50;;;20.60;58.10;;;;;;5081466;28;20036;-43
2021/03/13 04:10:42;;;;;;;1.17;0.40;;;20.60;58.00;;;;;;5079947;28;20067;-46
2021/03/13 04:13:09;;;;;;;1.23;0.40;;;20.60;58.10;;;;;;5080542;28;20642;-43
2021/03/13 04:15:35;;;;;;;3.22;0.55;;;20.60;58.20;;;;;;5079937;28;20020;-46
2021/03/13 04:18:01;;;;;;;1.85;0.50;;;20.60;58.10;;;;;;5080757;28;20028;-47
2021/03/13 04:20:28;;;;;;;1.67;0.70;;;20.60;58.20;;;;;;5082023;28;20365;-44
2021/03/13 04:22:54;;;;;;;0.70;0.40;;;20.60;58.20;;;;;;5079247;28;20036;-46
2021/03/13 04:25:21;;;;;;;0.98;0.43;;;20.60;58.40;;;;;;5074668;28;20371;-41
2021/03/13 04:27:48;;;;;;;1.27;1.10;;;20.60;58.20;;;;;;5081245;28;20128;-48
2021/03/13 04:30:16;;;;;;;1.75;0.40;;;20.60;58.30;;;;;;5081060;28;20025;-46
2021/03/13 04:32:45;;;;;;;1.75;0.30;;;20.60;58.20;;;;;;5081490;28;20111;-48
2021/03/13 04:35:12;;;;;;;0.93;0.35;;;20.60;58.50;;;;;;5076536;28;20124;-50
2021/03/13 04:37:39;;;;;;;1.15;0.43;;;20.70;58.50;;;;;;5083278;28;20123;-50
2021/03/13 04:40:07;;;;;;;0.68;0.38;;;20.60;58.60;;;;;;5078623;28;20024;-44
2021/03/13 04:42:33;;;;;;;2.00;0.50;;;20.60;58.40;;;;;;5086610;28;20044;-42
2021/03/13 04:44:58;;;;;;;2.15;0.60;;;20.60;58.70;;;;;;5084730;28;20020;-41
2021/03/13 04:47:24;;;;;;;1.02;0.60;;;20.60;58.70;;;;;;5084323;28;20472;-40
2021/03/13 04:49:50;;;;;;;1.67;0.70;;;20.60;59.00;;;;;;5083956;28;20481;-48
2021/03/13 04:52:16;;;;;;;0.90;0.30;;;20.60;59.10;;;;;;5083997;28;20477;-44
2021/03/13 04:54:41;;;;;;;1.10;0.40;;;20.60;58.90;;;;;;5084530;28;20032;-43
2021/03/13 04:57:07;;;;;;;1.17;0.35;;;20.60;58.90;;;;;;5086277;28;20039;-40
2021/03/13 04:59:34;;;;;;;0.80;0.40;;;20.60;59.00;;;;;;5081999;28;20048;-44
2021/03/13 05:02:02;;;;;;;3.78;0.60;;;20.60;59.10;;;;;;5081373;28;20024;-44
2021/03/13 05:04:27;;;;;;;1.48;0.70;;;20.60;59.10;;;;;;5081621;28;20032;-40
2021/03/13 05:06:53;;;;;;;1.02;0.70;;;20.60;59.20;;;;;;5084601;28;20032;-45
2021/03/13 05:09:19;;;;;;;0.98;0.35;;;20.60;59.20;;;;;;5084192;28;20035;-41
2021/03/13 05:11:44;;;;;;;2.55;0.50;;;20.70;59.80;;;;;;5082083;28;20035;-43
2021/03/13 05:14:10;;;;;;;2.92;0.73;;;20.70;59.10;;;;;;5084079;28;20024;-42
2021/03/13 05:16:36;;;;;;;1.25;0.45;;;20.60;59.20;;;;;;5086372;28;20026;-49
2021/03/13 05:19:01;;;;;;;1.25;0.50;;;20.70;57.20;;;;;;5079566;28;20032;-46
2021/03/13 05:21:27;;;;;;;0.47;0.32;;;20.70;57.50;;;;;;5083537;28;20031;-43
2021/03/13 05:23:52;;;;;;;1.10;0.32;;;20.70;57.80;;;;;;5076194;28;20112;-45
2021/03/13 05:26:18;;;;;;;1.60;0.40;;;20.70;57.70;;;;;;5083669;28;20460;-40
2021/03/13 05:28:44;;;;;;;0.70;0.30;;;20.70;57.70;;;;;;5080535;28;20059;-47
2021/03/13 05:31:10;;;;;;;1.42;0.40;;;20.70;58.00;;;;;;5082939;28;20021;-44
2021/03/13 05:33:35;;;;;;;1.60;0.47;;;20.70;58.10;;;;;;5082417;28;20513;-44
2021/03/13 05:36:01;;;;;;;2.17;0.43;;;20.70;58.20;;;;;;5082988;28;20032;-46
2021/03/13 05:38:26;;;;;;;1.08;0.40;;;20.70;58.10;;;;;;5081375;28;20025;-45
2021/03/13 05:40:52;;;;;;;0.90;0.40;;;20.70;58.20;;;;;;5082580;28;20473;-45
2021/03/13 05:43:20;;;;;;;1.25;1.15;;;20.70;58.20;;;;;;5085021;28;20050;-46
2021/03/13 05:45:47;;;;;;;2.83;0.47;;;20.60;58.10;;;;;;5082349;28;20491;-45
2021/03/13 05:48:14;;;;;;;0.65;0.30;;;20.70;58.30;;;;;;5082666;28;20104;-44
2021/03/13 05:50:40;;;;;;;1.80;0.40;;;20.70;58.30;;;;;;5081685;28;20436;-51
2021/03/13 05:53:10;;;;;;;2.47;0.40;;;20.70;58.60;;;;;;5080689;28;20017;-44
2021/03/13 05:55:37;;;;;;;1.90;0.43;;;20.70;58.50;;;;;;5083353;28;20100;-44
2021/03/13 05:58:05;;;;;;;1.30;0.38;;;20.70;58.50;;;;;;5081234;28;20173;-45
2021/03/13 06:00:31;;;;;;;0.82;0.30;;;20.60;58.40;;;;;;5082262;28;20079;-47
2021/03/13 06:02:57;;;;;;;1.88;0.43;;;20.70;58.40;;;;;;5078817;28;20032;-49
2021/03/13 06:05:23;;;;;;;1.10;0.35;;;20.70;58.40;;;;;;5078689;28;20047;-42
2021/03/13 06:07:53;;;;;;;1.55;0.40;;;20.70;58.30;;;;;;5081431;28;20465;-47
2021/03/13 06:10:19;;;;;;;1.27;0.38;;;20.70;58.20;;;;;;5081776;28;20036;-42
2021/03/13 06:12:45;;;;;;;0.35;0.20;;;20.70;58.00;;;;;;5084014;28;20507;-42
2021/03/13 06:15:11;;;;;;;1.92;0.57;;;20.70;57.90;;;;;;5079373;28;20099;-42
2021/03/13 06:17:52;;;;;;;0.30;0.30;;;20.70;57.70;;;;;;5081139;28;20032;-43
2021/03/13 06:20:27;;;;;;;0.63;0.40;;;20.70;57.60;;;;;;5083655;28;20047;-43
2021/03/13 06:22:53;;;;;;;1.08;0.30;;;20.70;57.40;;;;;;5080047;28;20024;-43
2021/03/13 06:25:26;;;;;;;0.70;0.38;;;20.70;57.10;;;;;;5084666;28;20469;-43
2021/03/13 06:28:15;;;;;;;0.90;0.30;;;20.70;56.70;;;;;;5079342;28;20392;-45
2021/03/13 06:30:45;;;;;;;1.45;0.40;;;20.70;56.70;;;;;;5082531;28;20440;-44
2021/03/13 06:33:31;;;;;;;0.73;0.40;;;20.70;56.90;;;;;;5081459;28;20025;-44
2021/03/13 06:35:58;;;;;;;0.68;0.40;;;20.70;57.00;;;;;;5084472;28;20031;-43
2021/03/13 06:38:26;;;;;;;1.38;0.90;;;20.70;57.00;;;;;;5083327;28;20025;-42
2021/03/13 06:41:16;;;;;;;1.42;0.50;;;20.70;57.00;;;;;;5071790;28;20036;-48
2021/03/13 06:43:43;;;;;;;0.77;0.30;;;20.70;57.00;;;;;;5072686;28;20033;-44
2021/03/13 06:46:17;;;;;;;0.52;0.40;;;20.70;57.00;;;;;;5084889;28;20102;-43
2021/03/13 06:48:44;;;;;;;0.85;0.43;;;20.70;57.00;;;;;;5083042;28;20029;-43
2021/03/13 06:51:20;;;;;;;1.13;0.45;;;20.70;57.20;;;;;;5079284;28;20104;-41
2021/03/13 06:54:03;;;;;;;0.73;0.35;;;20.70;57.20;;;;;;5077688;28;20043;-45
2021/03/13 06:56:30;;;;;;;0.73;0.30;;;20.70;57.10;;;;;;5089611;28;20035;-43
2021/03/13 06:58:58;;;;;;;2.17;0.55;;;20.70;57.20;;;;;;5089005;28;20066;-43
2021/03/13 07:01:28;;;;;;;1.40;0.40;;;20.70;57.10;;;;;;5073245;28;20481;-43
2021/03/13 07:03:55;;;;;;;1.25;0.30;;;20.70;57.00;;;;;;5074444;28;20465;-45
2021/03/13 07:06:21;;;;;;;0.85;0.30;;;20.70;57.10;;;;;;5081474;28;20036;-43
2021/03/13 07:08:49;;;;;;;1.13;0.93;;;20.70;57.10;;;;;;5082287;28;20036;-43
2021/03/13 07:11:17;;;;;;;0.57;0.30;;;20.70;57.10;;;;;;5082080;28;20024;-45
2021/03/13 07:13:48;;;;;;;1.02;0.50;;;20.80;57.20;;;;;;5078945;28;20059;-43
2021/03/13 07:16:31;;;;;;;1.10;0.50;;;20.70;57.00;;;;;;5083208;28;20031;-41
2021/03/13 07:19:07;;;;;;;1.40;0.50;;;20.70;57.10;;;;;;5082435;28;20446;-46
2021/03/13 07:21:34;;;;;;;1.30;0.40;;;20.80;57.10;;;;;;5081848;28;20074;-42
2021/03/13 07:24:05;;;;;;;1.40;0.60;;;20.70;57.00;;;;;;5077756;28;20457;-42
2021/03/13 07:26:36;;;;;;;1.15;0.40;;;20.80;57.20;;;;;;5079561;28;20025;-51
2021/03/13 07:29:04;;;;;;;1.67;0.63;;;20.80;57.20;;;;;;5079064;28;20051;-48
2021/03/13 07:31:34;;;;;;;0.60;0.28;;;20.80;57.20;;;;;;5080855;28;20029;-47
2021/03/13 07:34:01;;;;;;;1.75;0.50;;;20.80;57.80;;;;;;5081682;28;20488;-44
2021/03/13 07:36:27;;;;;;;1.13;0.35;;;20.80;57.20;;;;;;5080696;28;20077;-44
2021/03/13 07:38:58;;;;;;;0.65;0.40;;;20.80;57.30;;;;;;5077558;28;20038;-45
2021/03/13 07:41:24;;;;;;;2.33;0.38;;;20.80;57.30;;;;;;5080999;28;20404;-48
2021/03/13 07:43:50;;;;;;;11.02;1.15;;;20.80;57.50;;;;;;5081221;28;20028;-46
2021/03/13 07:46:17;;;;;;;5.10;0.70;;;20.80;57.50;;;;;;5079030;28;20035;-44
2021/03/13 07:48:43;;;;;;;4.78;0.70;;;20.80;57.70;;;;;;5080922;28;20103;-46
2021/03/13 07:51:09;;;;;;;3.60;0.60;;;20.80;57.60;;;;;;5084927;28;20483;-48
2021/03/13 07:53:41;;;;;;;4.95;0.60;;;20.80;57.70;;;;;;5082591;28;20344;-47
2021/03/13 07:56:15;;;;;;;7.07;0.50;;;20.80;57.80;;;;;;5080361;28;20073;-41
2021/03/13 07:58:42;;;;;;;9.40;0.93;;;20.90;57.80;;;;;;5079622;28;20493;-46
2021/03/13 08:01:09;;;;;;;6.72;0.70;;;20.90;57.80;;;;;;5076596;28;20056;-50
2021/03/13 08:03:37;;;;;;;4.93;0.68;;;21.10;57.70;;;;;;5068871;28;20023;-50
2021/03/13 08:06:07;;;;;;;2.70;0.90;;;21.00;58.00;;;;;;5080133;28;20385;-45
2021/03/13 08:08:52;;;;;;;7.35;0.70;;;21.10;59.00;;;;;;5079413;28;20042;-46
2021/03/13 08:11:19;;;;;;;4.43;0.50;;;21.10;59.20;;;;;;5079643;28;20512;-47
2021/03/13 08:13:53;;;;;;;3.58;0.50;;;21.10;60.50;;;;;;5078781;28;20029;-48
2021/03/13 08:16:32;;;;;;;2.58;0.60;;;21.10;60.80;;;;;;5075752;28;20031;-47
2021/03/13 08:18:58;;;;;;;2.33;0.43;;;21.10;60.90;;;;;;5079564;28;20140;-43
2021/03/13 08:21:27;;;;;;;3.00;0.47;;;21.10;61.20;;;;;;5082943;28;20027;-44
2021/03/13 08:23:57;;;;;;;12.40;1.40;;;21.10;61.30;;;;;;5085443;28;20477;-45
2021/03/13 08:26:43;;;;;;;5.25;0.98;;;21.10;61.70;;;;;;5083370;28;20111;-49
2021/03/13 08:29:11;;;;;;;4.97;0.40;;;21.10;61.70;;;;;;5069902;28;20040;-49
2021/03/13 08:31:39;;;;;;;2.63;0.50;;;21.10;62.10;;;;;;5083174;28;20060;-49
2021/03/13 08:34:05;;;;;;;3.22;0.57;;;21.10;62.20;;;;;;5083587;28;20020;-48
2021/03/13 08:36:49;;;;;;;2.30;0.40;;;21.10;62.30;;;;;;5083566;28;20104;-46
2021/03/13 08:39:23;;;;;;;2.20;0.38;;;21.10;62.30;;;;;;5084346;28;20024;-45
2021/03/13 08:41:50;;;;;;;1.85;0.50;;;21.20;62.50;;;;;;5084260;28;20488;-47
2021/03/13 08:44:16;;;;;;;5.63;0.50;;;21.20;62.60;;;;;;5082435;28;20408;-46
2021/03/13 08:46:47;;;;;;;3.40;0.50;;;21.20;62.60;;;;;;5081213;28;20020;-44
2021/03/13 08:49:21;;;;;;;2.50;0.50;;;21.20;62.70;;;;;;5084349;28;20031;-49
2021/03/13 08:51:47;;;;;;;3.50;0.60;;;21.30;63.10;;;;;;5084077;28;20484;-47
2021/03/13 08:54:33;;;;;;;1.02;0.40;;;21.30;63.70;;;;;;5085344;28;20081;-48
2021/03/13 08:56:59;;;;;;;4.82;0.68;;;21.30;63.90;;;;;;5078700;28;20054;-44
2021/03/13 08:59:25;;;;;;;1.42;0.40;;;21.30;64.20;;;;;;5082535;28;20051;-46
2021/03/13 09:02:12;;;;;;;2.40;0.57;;;21.30;64.40;;;;;;5082798;28;20039;-49
2021/03/13 09:04:40;;;;;;;3.80;1.30;;;21.30;64.70;;;;;;5081448;28;20031;-46
2021/03/13 09:07:07;;;;;;;1.75;0.40;;;21.20;65.10;;;;;;5083333;28;20028;-46
2021/03/13 09:09:36;;;;;;;1.67;0.32;;;21.30;65.40;;;;;;5082878;28;20059;-42
2021/03/13 09:12:07;;;;;;;2.03;0.40;;;21.30;65.60;;;;;;5081175;28;20024;-43
2021/03/13 09:14:34;;;;;;;6.68;0.55;;;21.30;65.70;;;;;;5083079;28;20036;-51
2021/03/13 09:17:11;;;;;;;1.33;0.38;;;21.30;66.10;;;;;;5084006;28;20058;-54
2021/03/13 09:19:38;;;;;;;2.10;0.45;;;21.30;66.10;;;;;;5082467;28;20054;-53
2021/03/13 09:22:14;;;;;;;2.42;0.70;;;21.30;66.70;;;;;;5082252;28;20461;-53
2021/03/13 09:24:41;;;;;;;2.35;0.40;;;21.30;66.80;;;;;;5085344;28;20108;-55
2021/03/13 09:27:07;;;;;;;3.72;0.45;;;21.30;66.80;;;;;;5090906;28;20242;-55
2021/03/13 09:29:40;;;;;;;1.58;0.40;;;21.30;67.00;;;;;;5082391;28;20104;-55
2021/03/13 09:32:11;;;;;;;0.85;0.30;;;21.40;67.00;;;;;;5073205;28;20029;-55
2021/03/13 09:34:45;;;;;;;7.18;0.52;;;21.40;67.00;;;;;;5075834;28;20540;-48
2021/03/13 09:37:22;;;;;;;3.70;0.40;;;21.40;67.10;;;;;;5072975;28;20063;-55
2021/03/13 09:39:52;;;;;;;2.60;0.40;;;21.40;67.40;;;;;;5073592;28;20499;-56
2021/03/13 09:42:23;;;;;;;4.72;0.50;;;21.40;67.50;;;;;;5083245;28;20017;-55
2021/03/13 09:44:50;;;;;;;1.35;0.50;;;21.40;67.50;;;;;;5083718;28;20031;-55
2021/03/13 09:47:20;;;;;;;2.38;0.50;;;21.50;68.20;;;;;;5077449;28;20020;-54
2021/03/13 09:49:57;;;;;;;1.48;0.50;;;21.50;68.30;;;;;;5091994;28;20101;-55
2021/03/13 09:52:34;;;;;;;3.70;0.40;;;21.30;68.40;;;;;;5091036;28;20030;-53
2021/03/13 09:55:09;;;;;;;1.30;0.40;;;21.40;68.30;;;;;;5072552;28;20401;-54
2021/03/13 09:57:37;;;;;;;3.78;0.40;;;21.40;68.40;;;;;;5076008;28;20039;-53
2021/03/13 10:00:08;;;;;;;4.57;0.60;;;21.50;68.10;;;;;;5074863;28;20115;-53
2021/03/13 10:02:34;;;;;;;2.03;0.47;;;21.50;68.10;;;;;;5080211;28;20039;-56
2021/03/13 10:05:02;;;;;;;2.58;0.55;;;21.50;68.00;;;;;;5082570;28;20031;-56
2021/03/13 10:07:29;;;;;;;1.50;0.57;;;21.50;67.50;;;;;;5085320;28;20486;-54
2021/03/13 10:10:02;;;;;;;3.22;0.60;;;21.50;67.50;;;;;;5072785;28;20028;-55
2021/03/13 10:12:37;;;;;;;7.28;0.70;;;21.50;67.60;;;;;;5072971;28;20025;-51
2021/03/13 10:15:17;;;;;;;7.97;0.55;;;21.50;68.40;;;;;;5076034;28;20024;-51
2021/03/13 10:18:02;;;;;;;7.13;1.02;;;21.50;68.40;;;;;;5072880;28;20462;-55
2021/03/13 10:20:53;;;;;;;7.95;0.70;;;21.50;67.60;;;;;;5084184;28;20032;-62
2021/03/13 10:23:27;;;;;;;5.22;0.60;;;21.50;68.30;;;;;;5085964;28;20040;-59
2021/03/13 10:25:59;;;;;;;7.40;0.98;;;21.50;67.90;;;;;;5072547;28;20074;-61
2021/03/13 10:28:35;;;;;;;2.23;0.77;;;21.50;68.30;;;;;;5090073;28;20032;-61
2021/03/13 10:31:11;;;;;;;4.50;0.88;;;21.50;68.10;;;;;;5081729;28;20020;-61
2021/03/13 10:33:41;;;;;;;5.45;0.52;;;21.50;68.10;;;;;;5078747;28;20035;-60
2021/03/13 10:36:11;;;;;;;6.78;0.90;;;21.50;66.10;;;;;;5075582;28;20024;-60
2021/03/13 10:38:44;;;;;;;3.95;0.90;;;21.50;57.40;;;;;;5079401;28;20031;-62
2021/03/13 10:41:16;;;;;;;3.58;1.00;;;21.50;57.20;;;;;;5080833;28;20028;-60
2021/03/13 10:43:46;;;;;;;6.07;0.60;;;21.40;57.20;;;;;;5080311;28;20028;-61
2021/03/13 10:46:18;;;;;;;4.15;0.70;;;21.40;56.70;;;;;;5079379;28;20036;-60
2021/03/13 10:48:47;;;;;;;5.47;0.70;;;21.40;56.70;;;;;;5081356;28;20119;-57
2021/03/13 10:51:27;;;;;;;2.42;0.50;;;21.40;56.50;;;;;;5081751;28;20039;-50
2021/03/13 10:53:55;;;;;;;4.15;0.70;;;21.40;56.50;;;;;;5082377;28;20473;-58
2021/03/13 10:56:22;;;;;;;2.67;0.65;;;21.40;56.70;;;;;;5073326;28;20069;-57
2021/03/13 10:58:57;;;;;;;6.45;0.60;;;21.40;56.90;;;;;;5073256;28;20106;-56
2021/03/13 11:01:25;;;;;;;4.05;0.65;;;21.40;56.60;;;;;;5080933;28;20029;-59
2021/03/13 11:03:55;;;;;;;7.70;0.70;;;21.40;57.50;;;;;;5078203;28;20098;-60
2021/03/13 11:06:29;;;;;;;4.30;0.60;;;21.40;57.70;;;;;;5082963;28;20067;-60
2021/03/13 11:08:57;;;;;;;3.85;0.60;;;21.30;57.80;;;;;;5079086;28;20048;-63
2021/03/13 11:11:23;;;;;;;3.85;0.50;;;21.30;57.60;;;;;;5069990;28;20920;-62
2021/03/13 11:13:49;;;;;;;7.05;0.77;;;21.40;57.70;;;;;;5068104;28;20041;-59
2021/03/13 11:16:15;;;;;;;5.18;0.80;;;21.30;57.90;;;;;;5079071;28;20028;-60
2021/03/13 11:18:42;;;;;;;4.88;0.60;;;21.30;57.10;;;;;;5081890;28;20024;-59
2021/03/13 11:21:08;;;;;;;6.78;0.80;;;21.10;55.70;;;;;;5070890;28;20079;-59
2021/03/13 11:23:34;;;;;;;2.95;0.40;;;21.20;57.30;;;;;;5071563;28;20025;-59
2021/03/13 11:26:00;;;;;;;6.68;0.70;;;21.10;57.20;;;;;;5070985;28;20052;-62
2021/03/13 11:28:25;;;;;;;2.05;0.60;;;21.10;57.10;;;;;;5075111;28;20468;-61
2021/03/13 11:30:51;;;;;;;6.00;1.25;;;21.10;57.20;;;;;;5084495;28;20036;-60
2021/03/13 11:33:17;;;;;;;13.65;1.35;;;21.10;57.20;;;;;;5087918;28;20614;-62
2021/03/13 11:35:44;;;;;;;3.63;0.82;;;21.20;57.10;;;;;;5086092;28;20025;-60
2021/03/13 11:38:10;;;;;;;6.10;0.60;;;21.10;56.80;;;;;;5090120;28;20043;-60
2021/03/13 11:40:36;;;;;;;2.80;0.60;;;21.10;57.10;;;;;;5083217;28;20024;-62
2021/03/13 11:43:02;;;;;;;3.67;0.50;;;21.10;57.00;;;;;;5082816;28;20032;-60
2021/03/13 11:45:29;;;;;;;4.38;0.55;;;21.10;57.30;;;;;;5083494;28;20028;-61
2021/03/13 11:47:56;;;;;;;6.47;0.82;;;21.10;57.20;;;;;;5086332;28;20381;-59
2021/03/13 11:50:27;;;;;;;4.13;0.45;;;21.10;57.00;;;;;;5078972;28;20024;-60
2021/03/13 11:52:55;;;;;;;2.83;0.80;;;21.10;56.80;;;;;;5095637;28;20047;-60
2021/03/13 11:55:22;;;;;;;4.68;0.43;;;21.10;57.10;;;;;;5078212;28;20028;-59
2021/03/13 11:57:47;;;;;;;4.50;0.60;;;21.10;56.70;;;;;;5091272;28;20034;-60
2021/03/13 12:00:13;;;;;;;2.25;0.40;;;21.10;57.60;;;;;;5086123;28;20380;-60
2021/03/13 12:02:39;;;;;;;2.45;0.43;;;21.10;57.60;;;;;;5084960;28;20112;-59
2021/03/13 12:05:07;;;;;;;4.13;0.40;;;21.10;57.50;;;;;;5074690;28;20064;-60
2021/03/13 12:07:33;;;;;;;4.82;0.40;;;21.10;57.50;;;;;;5090756;28;20081;-59
2021/03/13 12:09:59;;;;;;;1.60;0.35;;;21.10;57.50;;;;;;5094787;28;20032;-61
2021/03/13 12:12:25;;;;;;;1.02;0.35;;;21.10;58.00;;;;;;5094713;28;20453;-59
2021/03/13 12:14:50;;;;;;;2.15;0.50;;;21.10;57.70;;;;;;5077803;28;20036;-61
2021/03/13 12:17:16;;;;;;;2.10;0.50;;;21.10;57.40;;;;;;5090005;28;20089;-64
2021/03/13 12:19:42;;;;;;;1.70;0.47;;;21.00;57.30;;;;;;5084764;28;20047;-60
2021/03/13 12:22:08;;;;;;;3.45;0.50;;;21.10;57.30;;;;;;5077236;28;20036;-60
2021/03/13 12:24:35;;;;;;;1.35;0.45;;;21.10;57.00;;;;;;5075752;28;20035;-60
2021/03/13 12:27:02;;;;;;;1.65;0.38;;;21.00;56.50;;;;;;5093462;28;20040;-62
2021/03/13 12:29:27;;;;;;;1.45;0.50;;;21.00;56.40;;;;;;5094439;28;20133;-61
2021/03/13 12:31:54;;;;;;;0.98;0.45;;;21.00;56.70;;;;;;5092940;28;20120;-59
2021/03/13 12:34:19;;;;;;;1.75;0.43;;;21.00;56.40;;;;;;5093660;28;20020;-60
2021/03/13 12:36:46;;;;;;;4.72;0.40;;;21.00;56.50;;;;;;5088574;28;20032;-59
2021/03/13 12:39:11;;;;;;;4.18;0.50;;;21.00;56.30;;;;;;5093974;28;20028;-60
2021/03/13 12:41:37;;;;;;;5.75;0.77;;;21.10;56.40;;;;;;5088746;28;20451;-49
2021/03/13 12:44:03;;;;;;;9.43;0.40;;;21.20;57.10;;;;;;5092077;28;20385;-61
2021/03/13 12:46:29;;;;;;;2.70;0.68;;;21.10;54.80;;;;;;5085377;28;20028;-60
2021/03/13 12:48:55;;;;;;;2.85;0.43;;;21.10;56.30;;;;;;5080411;28;20028;-65
2021/03/13 12:51:21;;;;;;;4.63;0.85;;;21.10;56.50;;;;;;5087002;28;20074;-60
2021/03/13 12:53:46;;;;;;;1.75;0.40;;;21.10;56.20;;;;;;5083092;28;20074;-60
2021/03/13 12:56:13;;;;;;;1.70;0.57;;;21.10;56.90;;;;;;5073676;28;20935;-59